createdAt,value
2022-11-24T00:01:27.027Z,8.40
2022-11-24T00:03:58.088Z,9.25
2022-11-24T00:06:26.615Z,8.43
2022-11-24T00:08:55.125Z,8.65
2022-11-24T00:11:24.964Z,9.07
2022-11-24T00:13:52.929Z,8.55
2022-11-24T00:16:22.273Z,9.43
2022-11-24T00:18:52.497Z,9.18
2022-11-24T00:21:22.313Z,8.13
2022-11-24T00:23:50.542Z,8.23
2022-11-24T00:26:19.728Z,8.73
2022-11-24T00:28:49.099Z,8.45
2022-11-24T00:31:19.297Z,7.97
2022-11-24T00:33:49.894Z,8.00
2022-11-24T00:36:18.758Z,8.13
2022-11-24T00:38:48.533Z,8.52
2022-11-24T00:41:16.299Z,8.75
2022-11-24T00:43:44.060Z,7.97
2022-11-24T00:46:12.949Z,7.95
2022-11-24T00:48:40.933Z,8.50
2022-11-24T00:51:10.836Z,9.00
2022-11-24T00:53:39.005Z,8.43
2022-11-24T00:56:09.309Z,8.32
2022-11-24T00:58:37.562Z,8.38
2022-11-24T01:01:07.023Z,8.02
2022-11-24T01:03:35.290Z,8.48
2022-11-24T01:06:07.998Z,8.27
2022-11-24T01:08:37.464Z,8.27
2022-11-24T01:11:11.856Z,8.23
2022-11-24T01:13:40.431Z,8.02
2022-11-24T01:16:14.871Z,8.95
2022-11-24T01:18:42.631Z,8.70
2022-11-24T01:21:10.632Z,7.72
2022-11-24T01:23:38.555Z,8.70
2022-11-24T01:26:07.416Z,8.10
2022-11-24T01:28:38.594Z,7.95
2022-11-24T01:31:10.261Z,7.50
2022-11-24T01:33:38.773Z,8.35
2022-11-24T01:36:07.679Z,7.90
2022-11-24T01:38:35.553Z,9.65
2022-11-24T01:41:05.104Z,7.93
2022-11-24T01:43:33.488Z,8.20
2022-11-24T01:46:07.647Z,7.03
2022-11-24T01:48:39.072Z,7.85
2022-11-24T01:51:11.429Z,8.10
2022-11-24T01:53:42.385Z,7.18
2022-11-24T01:56:11.809Z,7.88
2022-11-24T01:58:42.900Z,8.43
2022-11-24T02:01:12.403Z,7.28
2022-11-24T02:03:43.235Z,7.22
2022-11-24T02:06:13.011Z,6.93
2022-11-24T02:08:46.049Z,8.15
2022-11-24T02:11:14.247Z,7.25
2022-11-24T02:13:44.411Z,7.05
2022-11-24T02:16:13.774Z,7.60
2022-11-24T02:18:44.057Z,7.82
2022-11-24T02:21:12.829Z,6.85
2022-11-24T02:23:48.204Z,7.53
2022-11-24T02:26:22.276Z,7.38
2022-11-24T02:28:51.451Z,6.75
2022-11-24T02:31:19.619Z,6.80
2022-11-24T02:33:47.880Z,6.75
2022-11-24T02:36:15.793Z,6.32
2022-11-24T02:38:43.560Z,6.63
2022-11-24T02:41:16.013Z,6.95
2022-11-24T02:43:48.363Z,7.00
2022-11-24T02:46:17.464Z,7.05
2022-11-24T02:48:45.232Z,6.93
2022-11-24T02:51:13.074Z,7.20
2022-11-24T02:53:40.789Z,7.45
2022-11-24T02:56:08.664Z,6.40
2022-11-24T02:58:36.856Z,6.32
2022-11-24T03:01:05.682Z,7.60
2022-11-24T03:03:34.986Z,6.97
2022-11-24T03:06:02.796Z,6.65
2022-11-24T03:08:30.521Z,7.10
2022-11-24T03:10:58.252Z,6.50
2022-11-24T03:13:26.048Z,6.82
2022-11-24T03:15:53.815Z,7.38
2022-11-24T03:18:21.610Z,6.53
2022-11-24T03:20:50.704Z,6.45
2022-11-24T03:23:18.486Z,6.88
2022-11-24T03:25:46.223Z,7.22
2022-11-24T03:28:13.975Z,6.68
2022-11-24T03:30:41.835Z,6.53
2022-11-24T03:33:09.629Z,7.50
2022-11-24T03:35:37.369Z,7.05
2022-11-24T03:38:06.459Z,7.20
2022-11-24T03:40:34.205Z,7.70
2022-11-24T03:43:01.928Z,7.60
2022-11-24T03:45:45.382Z,8.05
2022-11-24T03:48:14.265Z,7.43
2022-11-24T03:50:42.012Z,7.35
2022-11-24T03:53:11.307Z,7.50
2022-11-24T03:55:39.058Z,7.70
2022-11-24T03:58:06.799Z,7.90
2022-11-24T04:00:34.579Z,8.23
2022-11-24T04:03:02.353Z,7.95
2022-11-24T04:05:30.089Z,7.28
2022-11-24T04:07:58.332Z,6.82
2022-11-24T04:10:27.539Z,8.38
2022-11-24T04:12:54.385Z,8.30
2022-11-24T04:15:22.683Z,7.68
2022-11-24T04:17:51.283Z,8.05
2022-11-24T04:20:19.429Z,8.35
2022-11-24T04:22:47.360Z,7.80
2022-11-24T04:25:17.327Z,7.20
2022-11-24T04:27:46.561Z,8.27
2022-11-24T04:30:14.325Z,7.88
2022-11-24T04:32:42.086Z,7.30
2022-11-24T04:35:10.388Z,7.53
2022-11-24T04:37:38.217Z,8.90
2022-11-24T04:40:07.490Z,7.10
2022-11-24T04:42:35.464Z,8.18
2022-11-24T04:45:05.933Z,7.90
2022-11-24T04:47:34.002Z,7.75
2022-11-24T04:50:01.770Z,7.65
2022-11-24T04:52:31.399Z,7.90
2022-11-24T04:54:59.634Z,8.35
2022-11-24T04:57:28.063Z,8.52
2022-11-24T04:59:56.293Z,8.57
2022-11-24T05:02:25.866Z,8.27
2022-11-24T05:04:53.590Z,7.75
2022-11-24T05:07:21.360Z,8.05
2022-11-24T05:10:06.677Z,8.23
2022-11-24T05:12:34.489Z,8.10
2022-11-24T05:15:03.693Z,9.05
2022-11-24T05:17:34.705Z,8.43
2022-11-24T05:20:02.762Z,8.70
2022-11-24T05:22:31.566Z,8.25
2022-11-24T05:24:59.756Z,8.10
2022-11-24T05:27:27.602Z,8.15
2022-11-24T05:29:55.401Z,8.65
2022-11-24T05:32:23.120Z,8.68
2022-11-24T05:34:53.771Z,8.35
2022-11-24T05:37:21.548Z,8.35
2022-11-24T05:39:49.320Z,8.85
2022-11-24T05:42:34.959Z,8.00
2022-11-24T05:45:03.569Z,8.82
2022-11-24T05:47:31.323Z,9.35
2022-11-24T05:50:00.377Z,8.63
2022-11-24T05:52:28.282Z,8.60
2022-11-24T05:54:55.996Z,9.25
2022-11-24T05:57:23.775Z,9.02
2022-11-24T05:59:51.500Z,9.07
2022-11-24T06:02:19.434Z,8.60
2022-11-24T06:04:47.388Z,8.52
2022-11-24T06:07:17.358Z,8.65
2022-11-24T06:09:45.503Z,8.68
2022-11-24T06:12:14.257Z,9.00
2022-11-24T06:14:42.606Z,8.45
2022-11-24T06:17:11.400Z,8.82
2022-11-24T06:19:42.128Z,8.75
2022-11-24T06:22:10.212Z,8.98
2022-11-24T06:24:39.369Z,9.00
2022-11-24T06:27:07.653Z,8.73
2022-11-24T06:29:35.458Z,8.63
2022-11-24T06:32:03.344Z,8.85
2022-11-24T06:34:31.333Z,8.27
2022-11-24T06:36:59.215Z,8.35
2022-11-24T06:39:27.062Z,9.35
2022-11-24T06:41:56.125Z,9.30
2022-11-24T06:44:23.885Z,8.98
2022-11-24T06:46:51.687Z,8.52
2022-11-24T06:49:19.474Z,8.77
2022-11-24T06:51:47.245Z,8.57
2022-11-24T06:54:16.954Z,9.02
2022-11-24T06:56:44.899Z,8.30
2022-11-24T06:59:18.845Z,9.02
2022-11-24T07:01:47.136Z,9.02
2022-11-24T07:04:15.832Z,9.15
2022-11-24T07:06:44.088Z,8.60
2022-11-24T07:09:13.669Z,8.38
2022-11-24T07:11:42.422Z,9.02
2022-11-24T07:14:10.587Z,8.98
2022-11-24T07:16:40.585Z,8.82
2022-11-24T07:19:10.366Z,9.02
2022-11-24T07:21:38.124Z,9.25
2022-11-24T07:24:06.697Z,8.65
2022-11-24T07:26:37.180Z,8.27
2022-11-24T07:29:05.754Z,7.88
2022-11-24T07:31:33.578Z,9.70
2022-11-24T07:34:02.726Z,8.98
2022-11-24T07:36:30.487Z,8.98
2022-11-24T07:38:58.426Z,8.65
2022-11-24T07:41:26.281Z,9.88
2022-11-24T07:43:54.053Z,8.60
2022-11-24T07:46:21.993Z,8.65
2022-11-24T07:48:49.837Z,9.63
2022-11-24T07:51:18.951Z,8.93
2022-11-24T07:53:46.948Z,8.75
2022-11-24T07:56:14.797Z,8.98
2022-11-24T07:58:42.699Z,9.55
2022-11-24T08:01:12.289Z,8.60
2022-11-24T08:03:40.212Z,9.57
2022-11-24T08:06:28.504Z,8.82
2022-11-24T08:08:58.502Z,8.95
2022-11-24T08:11:27.047Z,9.05
2022-11-24T08:13:55.131Z,8.70
2022-11-24T08:16:23.001Z,8.68
2022-11-24T08:18:52.408Z,9.10
2022-11-24T08:21:20.918Z,9.43
2022-11-24T08:23:48.661Z,8.77
2022-11-24T08:26:19.284Z,9.20
2022-11-24T08:28:48.175Z,8.57
2022-11-24T08:31:19.473Z,9.10
2022-11-24T08:33:47.584Z,8.75
2022-11-24T08:36:17.686Z,10.10
2022-11-24T08:38:46.214Z,8.50
2022-11-24T08:41:17.568Z,9.65
2022-11-24T08:43:45.334Z,9.18
2022-11-24T08:46:16.812Z,9.65
2022-11-24T08:48:45.279Z,8.77
2022-11-24T08:51:14.685Z,8.38
2022-11-24T08:53:43.110Z,8.18
2022-11-24T08:56:12.793Z,8.77
2022-11-24T08:58:42.584Z,8.50
2022-11-24T09:01:12.748Z,8.65
2022-11-24T09:03:44.936Z,9.18
2022-11-24T09:06:22.513Z,8.93
2022-11-24T09:08:50.352Z,8.68
2022-11-24T09:11:18.416Z,8.57
2022-11-24T09:13:47.558Z,8.77
2022-11-24T09:16:17.501Z,9.10
2022-11-24T09:18:45.536Z,8.23
2022-11-24T09:21:14.990Z,8.27
2022-11-24T09:23:43.754Z,8.98
2022-11-24T09:26:14.391Z,9.10
2022-11-24T09:28:42.991Z,9.07
2022-11-24T09:31:14.321Z,9.23
2022-11-24T09:33:42.859Z,9.18
2022-11-24T09:36:11.048Z,9.27
2022-11-24T09:38:39.063Z,7.95
2022-11-24T09:41:36.802Z,8.48
2022-11-24T09:44:12.334Z,9.73
2022-11-24T09:46:50.613Z,8.55
2022-11-24T09:49:25.132Z,9.75
2022-11-24T09:51:55.947Z,9.10
2022-11-24T09:54:27.319Z,10.27
2022-11-24T09:56:58.680Z,9.07
2022-11-24T09:59:27.439Z,9.50
2022-11-24T10:01:56.753Z,10.32
2022-11-24T10:04:28.730Z,9.18
2022-11-24T10:07:04.161Z,10.02
2022-11-24T10:10:00.216Z,10.00
2022-11-24T10:12:43.516Z,9.35
2022-11-24T10:15:25.484Z,9.18
2022-11-24T10:18:03.838Z,9.50
2022-11-24T10:20:42.500Z,10.05
2022-11-24T10:23:26.973Z,9.43
2022-11-24T10:25:58.856Z,9.57
2022-11-24T10:28:32.097Z,9.55
2022-11-24T10:31:16.958Z,9.52
2022-11-24T10:33:46.962Z,9.50
2022-11-24T10:36:21.419Z,9.35
2022-11-24T10:38:54.935Z,9.40
2022-11-24T10:41:27.377Z,9.02
2022-11-24T10:43:59.587Z,9.35
2022-11-24T10:46:31.562Z,10.35
2022-11-24T10:49:06.191Z,9.25
2022-11-24T10:51:42.723Z,9.95
2022-11-24T10:54:16.809Z,10.18
2022-11-24T10:56:46.227Z,9.82
2022-11-24T10:59:33.451Z,10.10
2022-11-24T11:02:01.927Z,9.60
2022-11-24T11:04:32.760Z,10.13
2022-11-24T11:07:25.914Z,10.05
2022-11-24T11:10:20.357Z,9.95
2022-11-24T11:12:48.483Z,10.40
2022-11-24T11:15:27.671Z,9.77
2022-11-24T11:17:59.515Z,10.07
2022-11-24T11:20:32.772Z,9.70
2022-11-24T11:23:04.096Z,9.43
2022-11-24T11:25:34.135Z,9.20
2022-11-24T11:28:25.996Z,9.80
2022-11-24T11:34:05.450Z,10.18
2022-11-24T11:36:41.523Z,10.05
2022-11-24T11:39:21.161Z,9.98
2022-11-24T11:41:52.288Z,10.07
2022-11-24T11:44:30.905Z,9.95
2022-11-24T11:47:00.329Z,9.63
2022-11-24T11:49:28.164Z,9.30
2022-11-24T11:52:09.091Z,9.98
2022-11-24T11:54:56.725Z,8.98
2022-11-24T11:57:32.037Z,9.65
2022-11-24T12:00:09.543Z,10.32
2022-11-24T12:03:13.309Z,10.07
2022-11-24T12:05:51.635Z,10.60
2022-11-24T12:08:56.022Z,10.18
2022-11-24T12:11:31.087Z,9.57
2022-11-24T12:14:11.751Z,9.60
2022-11-24T12:16:48.638Z,9.95
2022-11-24T12:19:42.310Z,9.60
2022-11-24T12:22:17.900Z,9.55
2022-11-24T12:24:56.998Z,10.30
2022-11-24T12:27:40.374Z,9.13
2022-11-24T12:30:13.813Z,9.45
2022-11-24T12:33:10.954Z,9.10
2022-11-24T12:35:42.869Z,10.55
2022-11-24T12:38:33.296Z,9.75
2022-11-24T12:41:41.293Z,9.25
2022-11-24T12:44:23.128Z,9.48
2022-11-24T12:46:57.717Z,9.70
2022-11-24T12:49:33.753Z,9.57
2022-11-24T12:52:07.051Z,8.57
2022-11-24T12:54:40.847Z,10.05
2022-11-24T12:57:15.902Z,8.73
2022-11-24T12:59:49.345Z,9.52
2022-11-24T13:02:26.863Z,9.73
2022-11-24T13:05:02.251Z,9.88
2022-11-24T13:07:40.593Z,9.82
2022-11-24T13:10:58.120Z,9.80
2022-11-24T13:13:17.968Z,9.95
2022-11-24T13:16:35.698Z,9.35
2022-11-24T13:19:14.513Z,9.43
2022-11-24T13:22:04.739Z,9.63
2022-11-24T13:24:36.347Z,10.13
2022-11-24T13:27:28.796Z,9.45
2022-11-24T13:29:57.970Z,10.23
2022-11-24T13:33:03.441Z,10.18
2022-11-24T13:35:31.307Z,9.88
2022-11-24T13:37:59.321Z,10.25
2022-11-24T13:40:54.261Z,9.32
2022-11-24T13:43:27.809Z,9.07
2022-11-24T13:45:57.046Z,8.90
2022-11-24T13:48:53.290Z,9.05
2022-11-24T13:51:25.376Z,9.88
2022-11-24T13:53:55.832Z,9.82
2022-11-24T13:56:31.332Z,9.05
2022-11-24T13:59:01.386Z,8.02
2022-11-24T14:01:33.198Z,8.50
2022-11-24T14:04:30.000Z,8.85
2022-11-24T14:07:02.417Z,8.98
2022-11-24T14:09:40.518Z,9.18
2022-11-24T14:12:14.783Z,8.05
2022-11-24T14:14:45.433Z,8.60
2022-11-24T14:17:19.953Z,9.20
2022-11-24T14:19:49.795Z,8.80
2022-11-24T14:22:20.921Z,8.23
2022-11-24T14:24:54.588Z,8.15
2022-11-24T14:27:29.220Z,8.55
2022-11-24T14:29:58.616Z,7.97
2022-11-24T14:32:28.153Z,8.50
2022-11-24T14:34:56.881Z,7.78
2022-11-24T14:37:24.905Z,7.85
2022-11-24T14:39:53.812Z,7.93
2022-11-24T14:42:23.850Z,7.75
2022-11-24T14:44:54.470Z,8.13
2022-11-24T14:47:31.784Z,8.55
2022-11-24T14:50:10.106Z,8.25
2022-11-24T14:52:43.924Z,8.23
2022-11-24T14:55:25.472Z,7.95
2022-11-24T14:57:53.281Z,7.63
2022-11-24T15:00:28.409Z,8.57
2022-11-24T15:03:15.870Z,8.05
2022-11-24T15:05:55.482Z,7.93
2022-11-24T15:08:24.969Z,8.32
2022-11-24T15:10:58.945Z,7.60
2022-11-24T15:13:27.546Z,8.27
2022-11-24T15:16:02.921Z,7.47
2022-11-24T15:18:38.340Z,7.75
2022-11-24T15:21:06.486Z,8.05
2022-11-24T15:23:35.711Z,7.88
2022-11-24T15:26:30.765Z,7.70
2022-11-24T15:29:00.082Z,7.95
2022-11-24T15:31:27.964Z,7.97
2022-11-24T15:33:57.150Z,7.70
2022-11-24T15:36:24.921Z,7.75
2022-11-24T15:38:52.809Z,7.72
2022-11-24T15:41:22.644Z,8.02
2022-11-24T15:43:50.452Z,7.80
2022-11-24T15:46:18.370Z,7.97
2022-11-24T15:48:46.253Z,8.02
2022-11-24T15:51:15.999Z,8.13
2022-11-24T15:53:46.312Z,8.30
2022-11-24T15:56:20.190Z,7.85
2022-11-24T15:58:48.408Z,8.02
2022-11-24T16:01:16.273Z,7.53
2022-11-24T16:03:47.403Z,8.63
2022-11-24T16:06:24.581Z,8.13
2022-11-24T16:08:53.533Z,8.27
2022-11-24T16:11:21.304Z,7.65
2022-11-24T16:13:52.772Z,8.07
2022-11-24T16:16:21.312Z,8.23
2022-11-24T16:18:49.190Z,8.23
2022-11-24T16:21:18.299Z,7.88
2022-11-24T16:23:46.498Z,8.10
2022-11-24T16:26:14.316Z,7.80
2022-11-24T16:28:42.788Z,7.88
2022-11-24T16:31:10.580Z,7.68
2022-11-24T16:33:40.834Z,7.53
2022-11-24T16:36:09.453Z,7.05
2022-11-24T16:38:38.503Z,8.20
2022-11-24T16:41:06.755Z,8.15
2022-11-24T16:43:36.406Z,7.90
2022-11-24T16:46:19.380Z,8.18
2022-11-24T16:48:48.272Z,8.50
2022-11-24T16:51:16.944Z,7.93
2022-11-24T16:53:46.018Z,8.07
2022-11-24T16:56:14.675Z,9.95
2022-11-24T16:58:42.604Z,9.38
2022-11-24T17:01:12.263Z,9.25
2022-11-24T17:03:40.780Z,8.45
2022-11-24T17:06:11.165Z,7.75
2022-11-24T17:08:40.883Z,8.13
2022-11-24T17:11:11.358Z,7.78
2022-11-24T17:13:40.735Z,8.05
2022-11-24T17:16:10.591Z,7.55
2022-11-24T17:18:38.531Z,7.65
2022-11-24T17:21:09.923Z,7.55
2022-11-24T17:23:38.735Z,7.68
2022-11-24T17:26:08.342Z,8.13
2022-11-24T17:28:38.065Z,6.72
2022-11-24T17:31:10.071Z,7.38
2022-11-24T17:33:37.832Z,8.18
2022-11-24T17:36:06.887Z,7.50
2022-11-24T17:38:35.080Z,8.10
2022-11-24T17:41:03.435Z,7.90
2022-11-24T17:43:31.277Z,8.30
2022-11-24T17:46:03.121Z,7.65
2022-11-24T17:48:31.822Z,7.45
2022-11-24T17:51:00.997Z,7.63
2022-11-24T17:53:29.026Z,7.13
2022-11-24T17:55:59.864Z,7.32
2022-11-24T17:58:28.131Z,8.48
2022-11-24T18:00:55.947Z,7.80
2022-11-24T18:03:25.547Z,7.82
2022-11-24T18:05:53.301Z,7.65
2022-11-24T18:08:21.068Z,7.75
2022-11-24T18:10:50.893Z,7.20
2022-11-24T18:13:41.212Z,8.45
2022-11-24T18:16:08.176Z,8.38
2022-11-24T18:18:40.271Z,8.13
2022-11-24T18:21:12.511Z,8.20
2022-11-24T18:23:40.266Z,7.82
2022-11-24T18:26:08.429Z,9.02
2022-11-24T18:28:36.630Z,8.27
2022-11-24T18:31:06.387Z,8.63
2022-11-24T18:33:39.248Z,9.13
2022-11-24T18:36:11.288Z,9.40
2022-11-24T18:38:39.152Z,8.65
2022-11-24T18:41:08.527Z,9.20
2022-11-24T18:43:38.074Z,8.98
2022-11-24T18:46:07.801Z,8.40
2022-11-24T18:48:36.076Z,8.60
2022-11-24T18:51:05.424Z,8.25
2022-11-24T18:53:33.204Z,8.40
2022-11-24T18:56:02.452Z,8.75
2022-11-24T18:58:31.984Z,8.85
2022-11-24T19:01:07.986Z,8.43
2022-11-24T19:03:41.339Z,9.98
2022-11-24T19:06:15.569Z,9.68
2022-11-24T19:08:43.363Z,8.95
2022-11-24T19:11:17.570Z,9.23
2022-11-24T19:13:45.389Z,9.32
2022-11-24T19:16:13.459Z,9.57
2022-11-24T19:18:41.270Z,9.00
2022-11-24T19:21:09.471Z,9.07
2022-11-24T19:23:41.180Z,9.40
2022-11-24T19:26:09.357Z,8.95
2022-11-24T19:28:37.582Z,10.30
2022-11-24T19:31:06.933Z,9.35
2022-11-24T19:33:35.323Z,9.07
2022-11-24T19:36:04.315Z,8.75
2022-11-24T19:38:33.743Z,9.20
2022-11-24T19:41:09.558Z,9.55
2022-11-24T19:43:40.324Z,8.75
2022-11-24T19:46:09.550Z,8.73
2022-11-24T19:48:39.024Z,8.80
2022-11-24T19:51:08.955Z,9.13
2022-11-24T19:53:37.907Z,9.57
2022-11-24T19:56:08.138Z,9.25
2022-11-24T19:58:36.805Z,9.88
2022-11-24T20:01:08.600Z,8.95
2022-11-24T20:03:36.885Z,9.02
2022-11-24T20:06:05.175Z,8.85
2022-11-24T20:08:36.028Z,8.55
2022-11-24T20:11:05.000Z,8.85
2022-11-24T20:13:35.312Z,8.30
2022-11-24T20:16:04.200Z,8.48
2022-11-24T20:18:36.359Z,8.48
2022-11-24T20:21:08.333Z,9.65
2022-11-24T20:23:36.535Z,9.45
2022-11-24T20:26:05.486Z,9.82
2022-11-24T20:28:35.017Z,9.60
2022-11-24T20:31:03.375Z,9.43
2022-11-24T20:33:31.680Z,9.40
2022-11-24T20:36:03.550Z,10.20
2022-11-24T20:38:32.236Z,8.50
2022-11-24T20:41:08.768Z,9.05
2022-11-24T20:43:39.039Z,9.07
2022-11-24T20:46:07.903Z,8.90
2022-11-24T20:48:38.412Z,9.52
2022-11-24T20:51:07.922Z,9.43
2022-11-24T20:53:36.888Z,9.52
2022-11-24T20:56:06.603Z,9.70
2022-11-24T20:58:35.631Z,9.40
2022-11-24T21:01:09.996Z,10.52
2022-11-24T21:03:43.066Z,10.68
2022-11-24T21:06:14.246Z,10.93
2022-11-24T21:08:43.043Z,10.30
2022-11-24T21:11:12.580Z,10.80
2022-11-24T21:13:42.250Z,11.32
2022-11-24T21:16:16.506Z,11.00
2022-11-24T21:18:46.198Z,11.23
2022-11-24T21:21:14.930Z,11.77
2022-11-24T21:23:45.365Z,11.20
2022-11-24T21:26:16.850Z,11.10
2022-11-24T21:28:46.759Z,11.73
2022-11-24T21:31:18.230Z,11.75
2022-11-24T21:33:47.465Z,11.93
2022-11-24T21:36:17.732Z,12.23
2022-11-24T21:38:50.232Z,11.98
2022-11-24T21:41:18.459Z,13.02
2022-11-24T21:43:46.349Z,14.80
2022-11-24T21:46:15.659Z,12.95
2022-11-24T21:48:43.971Z,12.70
2022-11-24T21:51:14.136Z,13.25
2022-11-24T21:53:42.567Z,12.27
2022-11-24T21:56:13.654Z,12.05
2022-11-24T21:58:47.033Z,12.15
2022-11-24T22:01:18.014Z,11.63
2022-11-24T22:03:46.596Z,11.52
2022-11-24T22:06:15.108Z,11.70
2022-11-24T22:08:42.916Z,12.10
2022-11-24T22:11:13.113Z,11.13
2022-11-24T22:13:41.357Z,11.25
2022-11-24T22:16:11.923Z,12.07
2022-11-24T22:18:42.379Z,10.63
2022-11-24T22:21:12.839Z,12.02
2022-11-24T22:23:41.122Z,11.15
2022-11-24T22:26:13.242Z,11.00
2022-11-24T22:28:41.838Z,12.52
2022-11-24T22:31:11.793Z,11.77
2022-11-24T22:33:41.394Z,11.50
2022-11-24T22:36:10.711Z,11.68
2022-11-24T22:38:38.806Z,11.73
2022-11-24T22:41:10.383Z,12.43
2022-11-24T22:43:40.285Z,11.45
2022-11-24T22:46:09.403Z,11.60
2022-11-24T22:48:37.197Z,12.57
2022-11-24T22:51:08.099Z,12.50
2022-11-24T22:53:35.866Z,12.50
2022-11-24T22:56:04.054Z,12.18
2022-11-24T22:58:32.852Z,12.10
2022-11-24T23:01:06.045Z,11.85
2022-11-24T23:03:34.565Z,12.25
2022-11-24T23:06:02.841Z,14.90
2022-11-24T23:08:34.113Z,14.93
2022-11-24T23:11:03.060Z,13.23
2022-11-24T23:13:31.194Z,15.35
2022-11-24T23:16:03.019Z,13.95
2022-11-24T23:18:31.105Z,12.93
2022-11-24T23:21:05.537Z,13.05
2022-11-24T23:23:35.156Z,12.70
2022-11-24T23:26:04.311Z,11.23
2022-11-24T23:28:32.331Z,12.38
2022-11-24T23:31:04.011Z,12.93
2022-11-24T23:33:32.728Z,12.48
2022-11-24T23:36:02.394Z,14.82
2022-11-24T23:38:32.541Z,13.52
2022-11-24T23:41:04.332Z,13.48
2022-11-24T23:43:32.430Z,13.25
2022-11-24T23:46:03.886Z,14.43
2022-11-24T23:48:32.263Z,13.45
2022-11-24T23:51:04.791Z,13.57
2022-11-24T23:53:33.279Z,13.98
2022-11-24T23:56:03.117Z,10.68
2022-11-24T23:58:31.755Z,10.18
